Time;durP1;ratioP1;P1;durP2;ratioP2;P2;SDS_P1;SDS_P2;PMS_P1;PMS_P2;Temp;Humidity;BMP_temperature;BMP_pressure;BME280_temperature;BME280_humidity;BME280_pressure;Samples;Min_cycle;Max_cycle;Signal;HPM_P1;HPM_P2
2023/10/15 00:04:18;;;;;;;10.57;1.63;;;;;;;9.03;100.00;100093.48;5085636;56;1138777;-72
2023/10/15 00:09:23;;;;;;;6.97;1.83;;;;;;;8.99;100.00;100098.66;5105776;56;1141163;-72
2023/10/15 00:14:29;;;;;;;3.85;1.12;;;;;;;8.95;100.00;100095.90;5077678;56;1139115;-72
2023/10/15 00:19:35;;;;;;;7.63;1.27;;;;;;;8.86;100.00;100099.73;5163826;55;1138680;-71
2023/10/15 00:24:42;;;;;;;6.33;2.03;;;;;;;8.83;100.00;100108.72;5139432;56;1138743;-72
2023/10/15 00:29:48;;;;;;;5.10;1.40;;;;;;;8.84;100.00;100108.23;5079036;56;1138869;-71
2023/10/15 00:34:53;;;;;;;9.13;3.33;;;;;;;8.87;100.00;100112.77;5047195;56;1138922;-71
2023/10/15 00:39:59;;;;;;;3.73;1.77;;;;;;;8.89;100.00;100110.02;4990015;57;1138930;-72
2023/10/15 00:45:05;;;;;;;8.30;1.73;;;;;;;8.93;100.00;100101.77;5038458;57;1138831;-71
2023/10/15 00:50:11;;;;;;;7.12;1.62;;;;;;;8.95;100.00;100101.66;5078564;56;1138755;-72
2023/10/15 00:55:22;;;;;;;8.90;2.36;;;;;;;8.95;100.00;100093.73;5066519;56;1138995;-73
2023/10/15 01:00:47;;;;;;;10.53;1.42;;;;;;;8.94;100.00;100092.90;5084728;56;1138749;-71
2023/10/15 01:05:52;;;;;;;7.23;2.70;;;;;;;8.91;100.00;100096.25;5073607;56;1140685;-72
2023/10/15 01:11:08;;;;;;;4.55;1.72;;;;;;;8.83;100.00;100102.60;5030610;57;1138788;-72
2023/10/15 01:16:18;;;;;;;5.67;1.57;;;;;;;8.75;100.00;100104.49;5086951;56;1138605;-72
2023/10/15 01:21:26;;;;;;;5.08;1.40;;;;;;;8.70;100.00;100111.46;5185253;55;1138859;-71
2023/10/15 01:26:34;;;;;;;7.45;2.35;;;;;;;8.63;100.00;100105.44;5012202;57;1138769;-71
2023/10/15 01:31:51;;;;;;;9.33;1.30;;;;;;;8.61;100.00;100101.59;4916754;56;1138980;-72
2023/10/15 01:36:56;;;;;;;6.73;1.43;;;;;;;8.54;100.00;100103.03;5000466;56;1138535;-71
2023/10/15 01:42:04;;;;;;;3.83;1.10;;;;;;;8.49;100.00;100103.84;5053066;55;1138524;-72
2023/10/15 01:47:08;;;;;;;4.83;1.37;;;;;;;8.41;100.00;100103.09;5051995;56;1139035;-72
2023/10/15 01:52:13;;;;;;;7.67;1.40;;;;;;;8.37;100.00;100104.78;4874219;57;1138888;-72
2023/10/15 01:57:22;;;;;;;4.23;1.17;;;;;;;8.37;100.00;100104.78;5044090;57;1138761;-72
2023/10/15 02:02:29;;;;;;;3.87;1.15;;;;;;;8.35;100.00;100114.11;5064362;56;1138994;-71
2023/10/15 02:07:39;;;;;;;6.90;1.00;;;;;;;8.33;100.00;100119.97;5086391;56;1138863;-71
2023/10/15 02:12:42;;;;;;;8.97;2.07;;;;;;;8.27;100.00;100121.70;5116078;56;1138611;-73
2023/10/15 02:17:47;;;;;;;6.57;1.80;;;;;;;8.26;100.00;100115.22;5018924;57;1138726;-72
2023/10/15 02:22:54;;;;;;;7.23;1.87;;;;;;;8.17;100.00;100111.97;5048316;56;1139259;-72
2023/10/15 02:27:59;;;;;;;10.30;1.73;;;;;;;8.13;100.00;100127.15;5018318;56;1138954;-72
2023/10/15 02:33:06;;;;;;;9.23;1.03;;;;;;;8.11;100.00;100120.67;5099029;56;1141011;-71
2023/10/15 02:38:13;;;;;;;7.87;1.60;;;;;;;8.06;100.00;100121.52;5095177;56;1138863;-72
2023/10/15 02:43:20;;;;;;;7.15;1.47;;;;;;;8.01;100.00;100117.52;5080582;55;1138763;-73
2023/10/15 02:48:26;;;;;;;4.05;1.50;;;;;;;7.97;100.00;100122.17;5077885;56;1138586;-72
2023/10/15 02:53:36;;;;;;;5.17;1.55;;;;;;;7.91;100.00;100125.27;5083758;56;1139060;-70
2023/10/15 02:58:44;;;;;;;6.90;1.30;;;;;;;7.85;100.00;100115.17;5014724;57;1138726;-71
2023/10/15 03:03:52;;;;;;;6.30;1.50;;;;;;;7.83;100.00;100109.64;5098460;56;1138524;-71
2023/10/15 03:08:59;;;;;;;10.78;1.95;;;;;;;7.82;100.00;100121.97;5053128;56;1140142;-71
2023/10/15 03:14:06;;;;;;;9.27;2.27;;;;;;;7.78;100.00;100111.31;5072949;56;1140861;-71
2023/10/15 03:19:24;;;;;;;4.20;1.20;;;;;;;7.72;100.00;100113.91;5060163;56;1138914;-71
2023/10/15 03:24:33;;;;;;;3.27;1.32;;;;;;;7.71;100.00;100114.86;5133596;55;1139209;-72
2023/10/15 03:29:37;;;;;;;6.33;1.72;;;;;;;7.65;100.00;100107.86;5131560;55;1138857;-72
2023/10/15 03:34:59;;;;;;;7.27;1.10;;;;;;;7.64;100.00;100107.49;5171086;55;1138884;-72
2023/10/15 03:39:55;;;;;;;7.62;1.22;;;;;;;7.63;100.00;100103.21;5226434;55;1138401;-72
2023/10/15 03:45:01;;;;;;;8.83;1.57;;;;;;;7.59;100.00;100117.53;5042504;57;1139167;-72
2023/10/15 03:50:11;;;;;;;11.10;2.17;;;;;;;7.57;100.00;100106.27;5040428;57;1138622;-72
2023/10/15 03:55:17;;;;;;;3.87;1.40;;;;;;;7.56;100.00;100106.74;4955979;58;1141057;-72
2023/10/15 04:00:35;;;;;;;5.87;1.33;;;;;;;7.58;100.00;100115.37;5063646;57;1138784;-72
2023/10/15 04:05:42;;;;;;;3.93;1.43;;;;;;;7.63;100.00;100108.00;5040966;57;1138954;-72
2023/10/15 04:10:57;;;;;;;13.63;1.83;;;;;;;7.70;100.00;100111.02;4882084;58;1138817;-72
2023/10/15 04:16:03;;;;;;;7.37;1.27;;;;;;;7.74;100.00;100110.69;5095642;56;1141035;-71
2023/10/15 04:21:08;;;;;;;8.73;1.30;;;;;;;7.79;100.00;100102.47;4970850;57;1138751;-71
2023/10/15 04:26:14;;;;;;;7.87;1.03;;;;;;;7.84;100.00;100116.12;4991971;56;1138979;-72
2023/10/15 04:31:22;;;;;;;8.08;1.72;;;;;;;7.86;100.00;100097.10;5021009;56;1138969;-73
2023/10/15 04:36:28;;;;;;;9.52;1.30;;;;;;;7.91;100.00;100099.41;4959766;56;1138962;-72
2023/10/15 04:41:33;;;;;;;4.67;1.35;;;;;;;7.90;100.00;100094.63;5016092;55;1138749;-71
2023/10/15 04:46:43;;;;;;;11.18;1.77;;;;;;;7.91;100.00;100097.62;5065529;56;1139007;-71
2023/10/15 04:51:48;;;;;;;2.93;1.40;;;;;;;7.92;100.00;100092.72;4987846;56;1140871;-71
2023/10/15 04:56:54;;;;;;;6.07;1.67;;;;;;;7.92;100.00;100099.30;5020242;56;1139035;-71
2023/10/15 05:02:00;;;;;;;4.27;1.03;;;;;;;7.94;100.00;100100.51;5033905;56;1138823;-71
2023/10/15 05:07:05;;;;;;;3.97;0.93;;;;;;;7.96;100.00;100109.95;5077845;56;1138922;-71
2023/10/15 05:12:12;;;;;;;3.67;1.30;;;;;;;7.98;100.00;100112.48;5128809;55;1138972;-72
2023/10/15 05:17:20;;;;;;;5.17;1.00;;;;;;;8.01;100.00;100117.52;5104301;55;1138853;-72
2023/10/15 05:22:25;;;;;;;6.07;1.43;;;;;;;8.01;100.00;100127.58;5034905;57;1138968;-71
2023/10/15 05:27:33;;;;;;;6.35;1.45;;;;;;;8.03;100.00;100127.47;4905294;57;1138969;-71
2023/10/15 05:32:38;;;;;;;6.60;2.30;;;;;;;8.01;100.00;100134.16;5008179;55;1138880;-71
2023/10/15 05:37:45;;;;;;;10.03;1.43;;;;;;;8.00;100.00;100143.02;5053071;56;1139017;-71
2023/10/15 05:42:51;;;;;;;5.57;1.20;;;;;;;8.00;100.00;100153.55;5023503;56;1141040;-71
2023/10/15 05:47:56;;;;;;;12.40;2.17;;;;;;;8.04;100.00;100155.49;5024289;56;1138778;-71
2023/10/15 05:53:02;;;;;;;5.87;1.65;;;;;;;8.07;100.00;100160.55;5028279;57;1140862;-72
2023/10/15 05:58:08;;;;;;;3.33;1.03;;;;;;;8.07;100.00;100177.19;5015378;56;1138639;-72
2023/10/15 06:03:14;;;;;;;6.07;1.57;;;;;;;8.06;100.00;100179.45;4976440;56;1138665;-71
2023/10/15 06:08:19;;;;;;;5.87;1.20;;;;;;;8.06;100.00;100185.20;4918438;57;1138897;-71
2023/10/15 06:13:25;;;;;;;5.00;1.30;;;;;;;8.07;100.00;100194.78;5022048;57;1139160;-71
2023/10/15 06:18:31;;;;;;;5.22;1.90;;;;;;;8.08;100.00;100193.83;5019463;56;1139264;-72
2023/10/15 06:23:37;;;;;;;8.13;1.77;;;;;;;8.10;100.00;100200.64;4963028;57;1138707;-71
2023/10/15 06:28:42;;;;;;;2.83;1.33;;;;;;;8.08;100.00;100207.84;5004503;57;1139278;-71
2023/10/15 06:33:49;;;;;;;9.50;1.80;;;;;;;8.10;100.00;100215.12;5049681;57;1138752;-72
2023/10/15 06:39:01;;;;;;;7.67;1.63;;;;;;;8.16;100.00;100216.97;4930119;57;1138955;-72
2023/10/15 06:44:03;;;;;;;5.97;1.00;;;;;;;8.17;100.00;100224.77;5014299;57;1138964;-73
2023/10/15 06:49:08;;;;;;;5.87;1.50;;;;;;;8.19;100.00;100231.24;5089008;56;1139136;-73
2023/10/15 06:54:16;;;;;;;4.87;1.27;;;;;;;8.18;100.00;100231.71;5121068;56;1138815;-72
2023/10/15 06:59:21;;;;;;;4.77;1.13;;;;;;;8.20;100.00;100229.81;5108894;56;1138845;-73
2023/10/15 07:04:27;;;;;;;3.60;1.10;;;;;;;8.22;100.00;100231.87;4969454;56;1138771;-73
2023/10/15 07:09:37;;;;;;;6.23;1.70;;;;;;;8.27;100.00;100226.24;4911271;58;1138939;-73
2023/10/15 07:14:43;;;;;;;24.60;2.17;;;;;;;8.26;100.00;100221.92;5009204;56;1138818;-73
2023/10/15 07:19:48;;;;;;;8.17;1.47;;;;;;;8.38;100.00;100230.31;4961068;56;1141017;-72
2023/10/15 07:24:56;;;;;;;5.80;1.43;;;;;;;8.52;100.00;100225.34;5064279;56;1138778;-72
2023/10/15 07:30:02;;;;;;;3.02;0.82;;;;;;;8.56;100.00;100228.93;5051829;56;1138767;-71
2023/10/15 07:35:12;;;;;;;5.30;1.37;;;;;;;8.53;100.00;100235.77;5014216;56;1138864;-71
2023/10/15 07:40:32;;;;;;;11.17;1.50;;;;;;;8.53;100.00;100237.56;5034067;56;1139096;-72
2023/10/15 07:45:33;;;;;;;3.22;1.00;;;;;;;8.55;100.00;100240.46;5056286;56;1141235;-72
2023/10/15 07:50:39;;;;;;;7.60;1.32;;;;;;;8.66;100.00;100244.93;5089211;56;1139153;-73
2023/10/15 07:55:49;;;;;;;3.23;1.00;;;;;;;8.67;100.00;100254.05;5063503;56;1138993;-71
2023/10/15 08:00:54;;;;;;;2.40;0.90;;;;;;;8.68;100.00;100261.00;5057654;56;1139200;-72
2023/10/15 08:06:03;;;;;;;8.88;1.60;;;;;;;8.79;100.00;100271.59;5107826;56;1138747;-71
2023/10/15 08:11:08;;;;;;;7.70;1.77;;;;;;;8.82;100.00;100277.13;5079959;56;1139173;-72
2023/10/15 08:16:15;;;;;;;10.40;1.37;;;;;;;8.84;100.00;100282.28;5101099;55;1138765;-73
2023/10/15 08:21:21;;;;;;;10.27;1.27;;;;;;;8.80;100.00;100282.50;5068581;56;1141045;-73
2023/10/15 08:26:27;;;;;;;7.43;2.00;;;;;;;8.74;100.00;100286.90;5171641;55;1145476;-72
2023/10/15 08:31:32;;;;;;;8.10;1.60;;;;;;;8.76;100.00;100283.67;5114176;55;1138934;-73
2023/10/15 08:36:38;;;;;;;4.15;1.47;;;;;;;8.70;100.00;100286.78;5125003;55;1139205;-72
2023/10/15 08:41:45;;;;;;;28.20;8.57;;;;;;;8.85;100.00;100287.45;5138525;55;1139002;-72
2023/10/15 08:46:54;;;;;;;8.20;1.53;;;;;;;9.01;100.00;100287.15;5118847;55;1141061;-73
2023/10/15 08:52:01;;;;;;;8.10;1.37;;;;;;;9.26;100.00;100294.89;5131366;55;1138590;-72
2023/10/15 08:57:11;;;;;;;8.93;1.70;;;;;;;9.25;100.00;100290.56;5149032;55;1139206;-73
2023/10/15 09:02:18;;;;;;;9.53;2.73;;;;;;;9.18;100.00;100300.73;5145775;55;1138727;-72
2023/10/15 09:07:25;;;;;;;4.03;1.20;;;;;;;9.25;100.00;100306.41;5136358;55;1138808;-73
2023/10/15 09:12:31;;;;;;;4.75;1.30;;;;;;;9.40;100.00;100295.16;5132866;56;1138834;-73
2023/10/15 09:17:37;;;;;;;8.25;1.40;;;;;;;9.48;100.00;100285.69;5131524;55;1138744;-75
2023/10/15 09:22:47;;;;;;;5.03;1.23;;;;;;;9.45;100.00;100298.30;5123881;56;1146754;-73
2023/10/15 09:27:55;;;;;;;9.73;1.87;;;;;;;9.45;100.00;100310.18;5157932;55;1138918;-74
2023/10/15 09:33:00;;;;;;;12.77;2.10;;;;;;;9.44;100.00;100306.70;5196940;55;1139206;-73
2023/10/15 09:38:13;;;;;;;4.37;1.50;;;;;;;9.36;100.00;100317.45;5199947;55;1140646;-74
2023/10/15 09:43:17;;;;;;;14.85;2.47;;;;;;;9.30;100.00;100316.62;5129964;55;1138910;-73
2023/10/15 09:48:26;;;;;;;5.13;1.17;;;;;;;9.35;100.00;100325.84;5156278;55;1140794;-72
2023/10/15 09:53:35;;;;;;;10.87;1.80;;;;;;;9.38;100.00;100345.90;5116967;55;1138753;-72
2023/10/15 09:58:43;;;;;;;15.13;2.50;;;;;;;9.41;100.00;100333.32;5153221;55;1140893;-75
2023/10/15 10:04:05;;;;;;;13.17;2.57;;;;;;;9.50;100.00;100336.56;5033333;55;1140887;-75
2023/10/15 10:09:48;;;;;;;4.83;1.50;;;;;;;9.54;100.00;100341.14;4991562;56;1140979;-74
2023/10/15 10:15:32;;;;;;;9.77;1.73;;;;;;;9.85;100.00;100325.10;4834869;58;1139054;-74
2023/10/15 10:20:50;;;;;;;7.08;1.95;;;;;;;9.86;99.13;100338.20;4934242;57;1139137;-75
2023/10/15 10:25:58;;;;;;;11.57;2.70;;;;;;;9.91;99.18;100334.36;4836114;58;1136958;-71
2023/10/15 10:31:04;;;;;;;8.70;1.97;;;;;;;9.87;99.43;100326.67;4869107;58;1139190;-76
2023/10/15 10:36:28;;;;;;;13.27;2.63;;;;;;;9.87;98.92;100323.19;4983847;57;1136651;-72
2023/10/15 10:41:40;;;;;;;12.88;2.27;;;;;;;9.95;99.20;100313.33;4955374;57;1138917;-72
2023/10/15 10:46:46;;;;;;;8.07;2.73;;;;;;;10.11;96.87;100314.65;4968836;57;1139067;-73
2023/10/15 10:52:17;;;;;;;12.17;1.90;;;;;;;10.21;96.27;100313.50;4967599;56;1138635;-74
2023/10/15 10:57:27;;;;;;;8.60;1.90;;;;;;;10.38;95.40;100300.26;4800498;58;1140910;-74
2023/10/15 11:02:31;;;;;;;6.97;1.30;;;;;;;10.52;94.41;100299.98;4988787;57;1138729;-72
2023/10/15 11:07:37;;;;;;;6.17;1.87;;;;;;;10.69;93.07;100309.20;5053871;56;1138914;-73
2023/10/15 11:12:47;;;;;;;6.28;1.90;;;;;;;10.63;91.24;100309.69;4898350;57;1138697;-73
2023/10/15 11:17:58;;;;;;;11.57;2.20;;;;;;;10.71;92.69;100298.83;4956815;57;1138693;-74
2023/10/15 11:23:06;;;;;;;10.83;2.60;;;;;;;10.88;91.67;100304.91;4967464;57;1140993;-73
2023/10/15 11:28:12;;;;;;;6.87;1.80;;;;;;;10.97;91.13;100283.95;4869160;58;1140936;-73
2023/10/15 11:33:18;;;;;;;8.23;2.50;;;;;;;11.20;89.29;100294.30;4957669;58;1141431;-74
2023/10/15 11:38:34;;;;;;;8.40;4.27;;;;;;;11.27;87.11;100286.20;5046533;56;1138736;-73
2023/10/15 11:43:43;;;;;;;7.25;1.82;;;;;;;11.40;89.83;100283.36;4953909;57;1138614;-72
2023/10/15 11:48:49;;;;;;;11.40;3.23;;;;;;;11.53;87.60;100273.88;4859614;59;1138451;-73
2023/10/15 11:53:58;;;;;;;8.53;2.03;;;;;;;11.69;87.74;100273.41;4975752;57;1140899;-73
2023/10/15 11:59:03;;;;;;;7.83;1.67;;;;;;;11.69;85.60;100280.03;4951181;57;1138887;-74
2023/10/15 12:04:10;;;;;;;7.90;2.00;;;;;;;11.56;86.53;100279.77;4952898;58;1138741;-73
2023/10/15 12:09:24;;;;;;;13.37;2.70;;;;;;;11.41;85.74;100277.58;4954260;57;1138983;-73
2023/10/15 12:14:26;;;;;;;5.40;1.22;;;;;;;11.34;86.36;100278.56;4970775;58;1140797;-73
2023/10/15 12:19:32;;;;;;;5.97;1.37;;;;;;;11.35;83.95;100278.09;4953746;58;1138777;-72
2023/10/15 12:24:38;;;;;;;6.10;1.22;;;;;;;11.58;82.99;100275.66;4957828;57;1139041;-74
2023/10/15 12:29:43;;;;;;;5.88;2.18;;;;;;;11.80;83.25;100266.72;4945653;58;1138762;-74
2023/10/15 12:34:49;;;;;;;6.37;1.83;;;;;;;11.69;85.34;100276.89;4852415;57;1139043;-73
2023/10/15 12:39:55;;;;;;;11.50;2.67;;;;;;;11.44;85.68;100270.22;4864671;58;1138819;-74
2023/10/15 12:45:00;;;;;;;8.90;1.60;;;;;;;11.42;86.91;100278.78;4973452;57;1141007;-73
2023/10/15 12:50:14;;;;;;;5.27;1.53;;;;;;;11.50;86.04;100278.95;4951801;57;1138955;-73
2023/10/15 12:55:20;;;;;;;8.50;1.87;;;;;;;11.50;86.55;100249.81;4948600;57;1138942;-73
2023/10/15 13:00:28;;;;;;;5.20;2.00;;;;;;;11.60;85.66;100266.62;4957412;57;1138953;-74
2023/10/15 13:05:34;;;;;;;6.45;1.45;;;;;;;11.59;80.60;100262.77;4977890;57;1138993;-73
2023/10/15 13:10:40;;;;;;;3.87;1.40;;;;;;;11.45;83.01;100263.12;4953342;58;1139055;-72
2023/10/15 13:15:47;;;;;;;10.00;1.55;;;;;;;11.51;84.54;100270.52;4858030;58;1138734;-72
2023/10/15 13:20:52;;;;;;;8.87;1.70;;;;;;;11.68;85.35;100265.10;4967355;58;1141003;-72
2023/10/15 13:25:58;;;;;;;3.40;0.77;;;;;;;11.64;83.28;100263.20;4936949;57;1139089;-73
2023/10/15 13:31:05;;;;;;;4.00;1.40;;;;;;;11.38;82.11;100256.65;4961243;58;1138623;-73
2023/10/15 13:36:13;;;;;;;3.75;1.40;;;;;;;11.38;83.23;100257.97;4911968;58;1138675;-74
2023/10/15 13:41:20;;;;;;;3.83;1.50;;;;;;;11.48;83.01;100256.20;4974673;58;1138889;-73
2023/10/15 13:46:26;;;;;;;6.33;1.30;;;;;;;11.67;83.75;100244.39;4855188;58;1139259;-73
2023/10/15 13:51:32;;;;;;;7.47;1.40;;;;;;;11.50;82.13;100251.14;4986842;56;1138757;-74
2023/10/15 13:56:41;;;;;;;2.47;1.22;;;;;;;11.31;82.64;100247.05;4961045;58;1138908;-72
2023/10/15 14:01:46;;;;;;;7.28;1.15;;;;;;;11.46;81.94;100243.58;4988438;57;1138883;-73
2023/10/15 14:06:52;;;;;;;6.73;1.30;;;;;;;11.56;80.74;100251.95;4949880;58;1139051;-73
2023/10/15 14:11:57;;;;;;;6.43;1.53;;;;;;;11.35;79.73;100263.04;4873614;58;1139201;-73
2023/10/15 14:17:04;;;;;;;4.90;1.20;;;;;;;11.07;81.88;100265.02;4863129;58;1138898;-72
2023/10/15 14:22:09;;;;;;;8.40;1.40;;;;;;;10.92;81.13;100264.48;4843794;58;1138864;-73
2023/10/15 14:27:15;;;;;;;8.63;2.73;;;;;;;11.01;81.98;100257.58;4944371;58;1139032;-73
2023/10/15 14:32:21;;;;;;;6.67;1.77;;;;;;;11.11;83.31;100271.73;4883274;58;1138811;-73
2023/10/15 14:37:29;;;;;;;5.23;1.70;;;;;;;11.11;82.69;100269.09;4952265;57;1138782;-74
2023/10/15 14:42:42;;;;;;;7.40;1.90;;;;;;;10.73;83.48;100279.70;4958481;57;1139095;-73
2023/10/15 14:47:45;;;;;;;18.12;9.23;;;;;;;10.56;85.37;100278.92;4972541;57;1138922;-73
2023/10/15 14:52:51;;;;;;;3.35;1.07;;;;;;;10.60;84.59;100280.36;5012719;56;1141024;-72
2023/10/15 14:57:56;;;;;;;8.07;2.00;;;;;;;10.85;83.60;100277.84;5002373;57;1139039;-73
2023/10/15 15:03:04;;;;;;;8.23;1.80;;;;;;;12.02;82.41;100281.12;4869122;58;1139048;-72
2023/10/15 15:08:10;;;;;;;4.40;1.57;;;;;;;12.81;78.78;100286.45;4947926;57;1138851;-71
2023/10/15 15:13:16;;;;;;;4.40;1.70;;;;;;;12.24;77.05;100285.36;4864535;58;1139052;-72
2023/10/15 15:18:21;;;;;;;4.33;1.50;;;;;;;11.58;80.39;100285.77;4875053;58;1138861;-73
2023/10/15 15:23:27;;;;;;;8.70;1.80;;;;;;;11.15;81.25;100293.83;4842457;57;1138531;-73
2023/10/15 15:28:40;;;;;;;4.10;1.13;;;;;;;10.90;82.29;100292.88;4829789;58;1138970;-73
2023/10/15 15:33:42;;;;;;;9.30;1.77;;;;;;;10.78;82.16;100293.89;4976929;58;1138793;-75
2023/10/15 15:38:48;;;;;;;7.28;1.85;;;;;;;10.49;82.31;100298.42;4864863;59;1138885;-73
2023/10/15 15:43:54;;;;;;;6.57;1.10;;;;;;;10.25;83.01;100308.78;4959212;57;1138811;-74
2023/10/15 15:48:59;;;;;;;9.57;1.77;;;;;;;10.04;83.25;100314.79;4974951;58;1138839;-72
2023/10/15 15:54:06;;;;;;;5.67;1.90;;;;;;;9.85;84.22;100327.27;4827411;58;1138860;-75
2023/10/15 15:59:12;;;;;;;8.40;1.40;;;;;;;9.76;85.25;100336.39;4949008;57;1136853;-74
2023/10/15 16:04:17;;;;;;;5.72;1.27;;;;;;;9.60;86.19;100347.77;4952245;57;1136784;-75
2023/10/15 16:09:23;;;;;;;7.80;1.90;;;;;;;9.50;87.08;100351.09;4949544;57;1136865;-75
2023/10/15 16:14:29;;;;;;;4.23;1.10;;;;;;;9.45;87.96;100354.58;5010610;56;1136774;-73
2023/10/15 16:19:34;;;;;;;7.03;1.70;;;;;;;9.44;88.57;100356.01;4840935;58;1136847;-74
2023/10/15 16:24:42;;;;;;;6.50;1.85;;;;;;;9.45;89.09;100368.25;4854194;58;1136518;-74
2023/10/15 16:29:47;;;;;;;5.00;1.98;;;;;;;9.40;89.76;100374.34;4866082;57;1136971;-69
2023/10/15 16:34:53;;;;;;;14.33;11.13;;;;;;;9.34;90.30;100386.19;4942723;58;1136435;-70
2023/10/15 16:39:58;;;;;;;10.50;2.80;;;;;;;9.24;91.26;100397.08;4955877;57;1138942;-67
2023/10/15 16:45:04;;;;;;;13.50;4.47;;;;;;;9.19;91.50;100400.52;4860437;58;1136715;-66
2023/10/15 16:50:11;;;;;;;17.43;4.23;;;;;;;9.12;92.93;100401.47;4966311;57;1136810;-68
2023/10/15 16:55:17;;;;;;;6.50;2.02;;;;;;;9.01;94.91;100397.43;5035758;56;1136829;-67
2023/10/15 17:00:24;;;;;;;11.40;2.67;;;;;;;8.97;95.56;100403.06;5015684;57;1134781;-66
2023/10/15 17:05:30;;;;;;;7.47;2.37;;;;;;;8.86;95.66;100399.05;4834297;57;1136699;-70
2023/10/15 17:10:35;;;;;;;11.63;3.27;;;;;;;8.75;96.82;100407.72;4873882;57;1134731;-70
2023/10/15 17:15:42;;;;;;;5.58;2.22;;;;;;;8.67;98.03;100413.55;4975597;57;1138809;-70
2023/10/15 17:20:47;;;;;;;10.20;3.58;;;;;;;8.61;98.95;100407.38;4945777;57;1136686;-69
2023/10/15 17:25:54;;;;;;;6.50;2.03;;;;;;;8.56;99.15;100409.49;4952650;57;1136899;-69
2023/10/15 17:31:00;;;;;;;5.73;1.90;;;;;;;8.49;100.00;100404.31;4888972;59;1136692;-69
2023/10/15 17:36:06;;;;;;;7.67;2.73;;;;;;;8.42;100.00;100410.47;4949807;57;1138841;-71
2023/10/15 17:41:12;;;;;;;7.53;2.20;;;;;;;8.32;100.00;100406.80;4944654;57;1136892;-72
2023/10/15 17:46:18;;;;;;;4.57;1.60;;;;;;;8.24;100.00;100411.75;4942761;57;1138823;-70
2023/10/15 17:51:23;;;;;;;5.97;1.90;;;;;;;8.21;100.00;100408.01;5007143;57;1138880;-67
2023/10/15 17:56:31;;;;;;;9.00;2.33;;;;;;;8.16;100.00;100430.34;5031777;56;1136779;-69
2023/10/15 18:01:36;;;;;;;3.57;1.57;;;;;;;8.12;100.00;100430.55;4984497;57;1139057;-71
2023/10/15 18:06:43;;;;;;;8.18;2.52;;;;;;;8.07;100.00;100425.24;4961426;57;1138926;-70
2023/10/15 18:11:49;;;;;;;5.70;1.95;;;;;;;8.04;100.00;100424.97;4943014;56;1136774;-68
2023/10/15 18:16:55;;;;;;;4.23;1.87;;;;;;;8.01;100.00;100429.60;4942115;57;1138494;-68
2023/10/15 18:22:01;;;;;;;7.37;2.17;;;;;;;7.98;100.00;100444.29;4949103;57;1138761;-71
2023/10/15 18:27:06;;;;;;;3.90;1.90;;;;;;;7.98;100.00;100435.07;4935421;58;1136910;-68
2023/10/15 18:32:12;;;;;;;4.60;1.70;;;;;;;8.02;100.00;100441.83;4795016;59;1138901;-69
2023/10/15 18:37:18;;;;;;;7.67;1.60;;;;;;;8.00;100.00;100443.72;4795256;59;1136996;-71
2023/10/15 18:42:24;;;;;;;8.37;2.33;;;;;;;8.01;100.00;100451.52;4737072;60;1139039;-71
2023/10/15 18:47:34;;;;;;;8.17;1.90;;;;;;;8.02;100.00;100451.89;4907352;58;1138685;-69
2023/10/15 18:52:38;;;;;;;7.13;2.50;;;;;;;8.04;100.00;100446.52;4959065;57;1136958;-69
2023/10/15 18:57:44;;;;;;;8.83;3.47;;;;;;;8.01;100.00;100446.72;4903923;58;1139795;-71
2023/10/15 19:02:49;;;;;;;8.90;3.12;;;;;;;8.03;100.00;100450.09;4819871;58;1139432;-67
2023/10/15 19:07:55;;;;;;;9.10;2.10;;;;;;;8.02;100.00;100444.45;4862945;58;1136757;-69
2023/10/15 19:13:01;;;;;;;8.53;2.63;;;;;;;8.00;100.00;100456.41;4811865;59;1136955;-67
2023/10/15 19:18:07;;;;;;;7.93;2.27;;;;;;;7.94;100.00;100454.21;4736019;58;1137118;-68
2023/10/15 19:23:15;;;;;;;5.23;2.40;;;;;;;7.92;100.00;100449.98;4708359;58;1136817;-68
2023/10/15 19:28:20;;;;;;;6.50;2.50;;;;;;;7.86;100.00;100449.92;4662559;59;1136919;-68
2023/10/15 19:33:29;;;;;;;3.97;2.23;;;;;;;7.77;100.00;100451.87;4936401;57;1136793;-71
2023/10/15 19:38:34;;;;;;;4.40;1.43;;;;;;;7.61;100.00;100462.57;4790661;58;1136906;-70
2023/10/15 19:43:42;;;;;;;9.15;2.33;;;;;;;7.61;100.00;100462.57;4783399;60;1136868;-70
2023/10/15 19:48:48;;;;;;;10.03;2.15;;;;;;;7.56;100.00;100468.60;4897443;58;1136783;-67
2023/10/15 19:53:54;;;;;;;6.10;2.10;;;;;;;7.50;100.00;100459.78;4906073;57;1139018;-69
2023/10/15 19:58:59;;;;;;;7.60;2.27;;;;;;;7.50;100.00;100472.09;4790580;59;1136727;-70
2023/10/15 20:04:05;;;;;;;7.37;1.97;;;;;;;7.46;100.00;100471.48;4808574;60;1136892;-69
2023/10/15 20:09:17;;;;;;;3.00;1.67;;;;;;;7.43;100.00;100476.09;4738207;60;1136596;-71
2023/10/15 20:14:19;;;;;;;5.37;2.10;;;;;;;7.37;100.00;100481.27;4999428;57;1137414;-68
2023/10/15 20:19:24;;;;;;;7.73;1.80;;;;;;;7.32;100.00;100486.84;4994372;57;1136936;-72
2023/10/15 20:24:30;;;;;;;10.23;2.30;;;;;;;7.27;100.00;100493.34;4740882;58;1137019;-68
2023/10/15 20:29:36;;;;;;;7.87;1.93;;;;;;;7.25;100.00;100493.90;4750487;57;1139095;-70
2023/10/15 20:34:41;;;;;;;4.67;1.73;;;;;;;7.21;100.00;100509.03;4809952;59;1136834;-67
2023/10/15 20:39:47;;;;;;;3.08;1.65;;;;;;;7.23;100.00;100508.94;4791191;59;1136920;-70
2023/10/15 20:44:54;;;;;;;4.00;1.73;;;;;;;7.22;100.00;100508.09;4790529;60;1136840;-70
2023/10/15 20:50:01;;;;;;;8.43;2.80;;;;;;;7.25;100.00;100503.11;4927416;55;1137112;-71
2023/10/15 20:55:09;;;;;;;7.23;1.73;;;;;;;7.26;100.00;100499.53;4904163;57;1136459;-70
2023/10/15 21:00:19;;;;;;;5.22;1.40;;;;;;;7.26;100.00;100508.74;4917277;57;1137068;-71
2023/10/15 21:05:23;;;;;;;8.60;1.20;;;;;;;7.23;100.00;100505.83;4776870;59;1137561;-71
2023/10/15 21:10:29;;;;;;;2.33;1.00;;;;;;;7.23;100.00;100505.83;4763176;59;1136849;-66
2023/10/15 21:15:35;;;;;;;2.80;0.70;;;;;;;7.23;100.00;100513.72;4715945;58;1136878;-69
2023/10/15 21:20:41;;;;;;;6.40;1.40;;;;;;;7.23;100.00;100508.46;4890073;57;1136780;-71
2023/10/15 21:25:46;;;;;;;6.97;1.47;;;;;;;7.20;100.00;100516.54;4765199;59;1136900;-69
2023/10/15 21:30:54;;;;;;;5.87;1.60;;;;;;;7.14;100.00;100509.06;4900817;58;1137111;-68
2023/10/15 21:35:59;;;;;;;7.83;1.60;;;;;;;7.07;100.00;100511.69;4791728;59;1137116;-67
2023/10/15 21:41:05;;;;;;;17.47;1.10;;;;;;;7.02;100.00;100517.73;4793355;59;1136696;-69
2023/10/15 21:46:10;;;;;;;10.73;2.90;;;;;;;6.95;100.00;100512.47;4796335;59;1138746;-69
2023/10/15 21:51:17;;;;;;;7.67;1.47;;;;;;;6.94;100.00;100522.14;4898689;57;1138800;-70
2023/10/15 21:56:22;;;;;;;8.90;1.63;;;;;;;6.98;100.00;100521.02;4911263;58;1136723;-67
2023/10/15 22:01:28;;;;;;;5.63;1.37;;;;;;;7.05;100.00;100520.98;4864445;58;1136858;-68
2023/10/15 22:06:35;;;;;;;2.03;1.13;;;;;;;7.10;100.00;100521.17;4712080;60;1136714;-70
2023/10/15 22:11:43;;;;;;;4.33;1.33;;;;;;;7.10;100.00;100520.70;4763806;59;1136913;-69
2023/10/15 22:16:50;;;;;;;6.07;1.40;;;;;;;7.10;100.00;100528.59;4741100;60;1136919;-69
2023/10/15 22:21:55;;;;;;;6.62;1.57;;;;;;;7.09;100.00;100528.22;4711709;60;1136787;-70
2023/10/15 22:27:12;;;;;;;6.83;2.57;;;;;;;7.06;100.00;100528.41;4703398;60;1136932;-69
2023/10/15 22:32:09;;;;;;;10.83;1.60;;;;;;;7.03;100.00;100530.75;4741151;60;1137035;-69
2023/10/15 22:37:17;;;;;;;4.30;1.37;;;;;;;7.04;100.00;100532.91;4792210;60;1138891;-68
2023/10/15 22:42:22;;;;;;;5.83;1.30;;;;;;;7.03;100.00;100532.07;4885431;57;1136786;-68
2023/10/15 22:47:29;;;;;;;5.33;2.00;;;;;;;7.06;100.00;100545.03;4813811;59;1136891;-69
2023/10/15 22:52:36;;;;;;;5.13;1.40;;;;;;;7.05;100.00;100542.02;4791635;60;1136983;-68
2023/10/15 22:57:42;;;;;;;5.00;1.10;;;;;;;7.01;100.00;100537.08;4714650;60;1136845;-69
2023/10/15 23:02:48;;;;;;;6.17;1.55;;;;;;;6.96;100.00;100542.61;4809190;59;1137039;-68
2023/10/15 23:07:54;;;;;;;3.58;1.27;;;;;;;6.90;100.00;100564.48;4918658;57;1136506;-68
2023/10/15 23:13:00;;;;;;;4.33;1.10;;;;;;;6.82;100.00;100564.97;4829749;58;1136775;-70
2023/10/15 23:18:07;;;;;;;2.77;1.43;;;;;;;6.80;100.00;100568.63;4860896;58;1137020;-67